Terminal Aerodrome Forecast
Issued by NWS

Home | Current Version | Previous Version | Text Only | Print | Product List | Glossary On
Versions: 1 2 3 4 5 6 7 8 9 10 11 12 13 14 15 16 17 18 19 20 21 22 23 24 25 26 27 28 29 30 31 32 33 34 35 36 37 38 39 40 41 42 43 44
000
FTUS41 KBOX 282320
TAFFMH
TAF
KFMH 282320Z 2900/2924 07005KT 6SM -RA OVC008
     FM290300 07006KT 2SM -RA BR OVC003
     FM290800 01005KT 2SM BR OVC003
     FM291200 36007KT P6SM OVC008
     FM291800 36013G22KT P6SM SCT040
     FM292000 36011G19KT P6SM BKN070
     FM292200 35011G21KT P6SM SCT110=

USA.gov is the U.S. government's official web portal to all federal, state and local government web resources and services.